sensor_id;sensor_type;location;lat;lon;timestamp;P1;durP1;ratioP1;P2;durP2;ratioP2
17566;SDS011;8901;52.088;5.084;2023-03-04T00:00:46;16.60;;;9.00;;
17566;SDS011;8901;52.088;5.084;2023-03-04T00:03:13;14.20;;;8.83;;
17566;SDS011;8901;52.088;5.084;2023-03-04T00:05:40;16.97;;;8.67;;
17566;SDS011;8901;52.088;5.084;2023-03-04T00:08:07;15.17;;;9.03;;
17566;SDS011;8901;52.088;5.084;2023-03-04T00:10:36;14.53;;;8.07;;
17566;SDS011;8901;52.088;5.084;2023-03-04T00:13:03;17.70;;;8.70;;
17566;SDS011;8901;52.088;5.084;2023-03-04T00:15:40;13.87;;;8.13;;
17566;SDS011;8901;52.088;5.084;2023-03-04T00:18:08;17.13;;;9.70;;
17566;SDS011;8901;52.088;5.084;2023-03-04T00:20:37;21.90;;;9.30;;
17566;SDS011;8901;52.088;5.084;2023-03-04T00:23:22;18.73;;;10.20;;
17566;SDS011;8901;52.088;5.084;2023-03-04T00:26:01;12.33;;;9.80;;
17566;SDS011;8901;52.088;5.084;2023-03-04T00:28:34;16.37;;;9.77;;
17566;SDS011;8901;52.088;5.084;2023-03-04T00:31:10;14.43;;;9.90;;
17566;SDS011;8901;52.088;5.084;2023-03-04T00:33:39;16.67;;;9.77;;
17566;SDS011;8901;52.088;5.084;2023-03-04T00:36:07;14.63;;;10.30;;
17566;SDS011;8901;52.088;5.084;2023-03-04T00:41:40;19.97;;;10.70;;
17566;SDS011;8901;52.088;5.084;2023-03-04T00:50:09;15.30;;;9.93;;
17566;SDS011;8901;52.088;5.084;2023-03-04T00:52:38;16.00;;;9.67;;
17566;SDS011;8901;52.088;5.084;2023-03-04T00:57:56;15.17;;;9.00;;
17566;SDS011;8901;52.088;5.084;2023-03-04T01:00:31;15.37;;;10.07;;
17566;SDS011;8901;52.088;5.084;2023-03-04T01:03:14;15.57;;;9.40;;
17566;SDS011;8901;52.088;5.084;2023-03-04T01:11:45;14.57;;;10.30;;
17566;SDS011;8901;52.088;5.084;2023-03-04T01:17:17;15.43;;;10.13;;
17566;SDS011;8901;52.088;5.084;2023-03-04T01:19:56;14.17;;;8.87;;
17566;SDS011;8901;52.088;5.084;2023-03-04T01:25:27;17.63;;;9.90;;
17566;SDS011;8901;52.088;5.084;2023-03-04T01:33:33;12.50;;;9.50;;
17566;SDS011;8901;52.088;5.084;2023-03-04T01:41:37;14.17;;;10.20;;
17566;SDS011;8901;52.088;5.084;2023-03-04T01:44:05;16.50;;;9.90;;
17566;SDS011;8901;52.088;5.084;2023-03-04T01:46:34;14.77;;;10.23;;
17566;SDS011;8901;52.088;5.084;2023-03-04T01:49:08;15.47;;;11.03;;
17566;SDS011;8901;52.088;5.084;2023-03-04T01:51:45;14.43;;;11.03;;
17566;SDS011;8901;52.088;5.084;2023-03-04T01:54:14;15.13;;;10.40;;
17566;SDS011;8901;52.088;5.084;2023-03-04T02:02:06;18.03;;;10.10;;
17566;SDS011;8901;52.088;5.084;2023-03-04T02:10:38;14.90;;;10.13;;
17566;SDS011;8901;52.088;5.084;2023-03-04T02:13:13;15.60;;;10.17;;
17566;SDS011;8901;52.088;5.084;2023-03-04T02:18:44;13.57;;;9.13;;
17566;SDS011;8901;52.088;5.084;2023-03-04T02:21:12;15.00;;;9.93;;
17566;SDS011;8901;52.088;5.084;2023-03-04T02:23:42;14.03;;;10.17;;
17566;SDS011;8901;52.088;5.084;2023-03-04T02:26:15;17.83;;;10.77;;
17566;SDS011;8901;52.088;5.084;2023-03-04T02:28:42;15.37;;;9.67;;
17566;SDS011;8901;52.088;5.084;2023-03-04T02:31:13;15.60;;;9.07;;
17566;SDS011;8901;52.088;5.084;2023-03-04T02:33:46;12.70;;;10.13;;
17566;SDS011;8901;52.088;5.084;2023-03-04T02:36:13;14.27;;;9.87;;
17566;SDS011;8901;52.088;5.084;2023-03-04T02:38:40;11.87;;;9.77;;
17566;SDS011;8901;52.088;5.084;2023-03-04T02:41:08;13.00;;;10.00;;
17566;SDS011;8901;52.088;5.084;2023-03-04T02:43:39;13.70;;;9.20;;
17566;SDS011;8901;52.088;5.084;2023-03-04T02:46:08;10.43;;;9.13;;
17566;SDS011;8901;52.088;5.084;2023-03-04T02:48:36;13.13;;;9.20;;
17566;SDS011;8901;52.088;5.084;2023-03-04T02:51:04;11.70;;;9.17;;
17566;SDS011;8901;52.088;5.084;2023-03-04T02:53:31;14.73;;;9.40;;
17566;SDS011;8901;52.088;5.084;2023-03-04T02:55:58;12.20;;;9.63;;
17566;SDS011;8901;52.088;5.084;2023-03-04T02:58:25;12.83;;;9.53;;
17566;SDS011;8901;52.088;5.084;2023-03-04T03:00:54;12.47;;;8.30;;
17566;SDS011;8901;52.088;5.084;2023-03-04T03:03:21;12.03;;;9.43;;
17566;SDS011;8901;52.088;5.084;2023-03-04T03:05:48;11.37;;;9.10;;
17566;SDS011;8901;52.088;5.084;2023-03-04T03:08:16;14.17;;;9.37;;
17566;SDS011;8901;52.088;5.084;2023-03-04T03:10:43;12.03;;;9.20;;
17566;SDS011;8901;52.088;5.084;2023-03-04T03:13:10;14.33;;;10.17;;
17566;SDS011;8901;52.088;5.084;2023-03-04T03:15:37;17.23;;;9.57;;
17566;SDS011;8901;52.088;5.084;2023-03-04T03:18:08;16.47;;;8.77;;
17566;SDS011;8901;52.088;5.084;2023-03-04T03:20:36;13.97;;;9.37;;
17566;SDS011;8901;52.088;5.084;2023-03-04T03:23:03;20.30;;;9.70;;
17566;SDS011;8901;52.088;5.084;2023-03-04T03:25:30;18.03;;;9.70;;
17566;SDS011;8901;52.088;5.084;2023-03-04T03:30:48;11.77;;;9.07;;
17566;SDS011;8901;52.088;5.084;2023-03-04T03:33:17;11.07;;;9.47;;
17566;SDS011;8901;52.088;5.084;2023-03-04T03:35:44;14.30;;;10.40;;
17566;SDS011;8901;52.088;5.084;2023-03-04T03:38:11;17.93;;;9.90;;
17566;SDS011;8901;52.088;5.084;2023-03-04T03:40:39;15.83;;;10.37;;
17566;SDS011;8901;52.088;5.084;2023-03-04T03:43:06;13.37;;;10.83;;
17566;SDS011;8901;52.088;5.084;2023-03-04T03:45:33;15.33;;;10.07;;
17566;SDS011;8901;52.088;5.084;2023-03-04T03:48:00;17.23;;;10.13;;
17566;SDS011;8901;52.088;5.084;2023-03-04T03:50:29;10.80;;;9.57;;
17566;SDS011;8901;52.088;5.084;2023-03-04T03:52:57;12.80;;;9.27;;
17566;SDS011;8901;52.088;5.084;2023-03-04T03:55:24;9.67;;;8.80;;
17566;SDS011;8901;52.088;5.084;2023-03-04T03:57:52;12.20;;;8.70;;
17566;SDS011;8901;52.088;5.084;2023-03-04T04:00:19;12.37;;;8.97;;
17566;SDS011;8901;52.088;5.084;2023-03-04T04:02:47;12.87;;;9.50;;
17566;SDS011;8901;52.088;5.084;2023-03-04T04:05:14;13.90;;;9.40;;
17566;SDS011;8901;52.088;5.084;2023-03-04T04:07:42;12.17;;;9.53;;
17566;SDS011;8901;52.088;5.084;2023-03-04T04:10:10;14.80;;;9.00;;
17566;SDS011;8901;52.088;5.084;2023-03-04T04:12:37;12.03;;;9.27;;
17566;SDS011;8901;52.088;5.084;2023-03-04T04:15:05;11.63;;;8.80;;
17566;SDS011;8901;52.088;5.084;2023-03-04T04:17:32;14.90;;;9.40;;
17566;SDS011;8901;52.088;5.084;2023-03-04T04:20:00;10.93;;;9.73;;
17566;SDS011;8901;52.088;5.084;2023-03-04T04:22:27;12.23;;;9.50;;
17566;SDS011;8901;52.088;5.084;2023-03-04T04:24:55;11.23;;;9.63;;
17566;SDS011;8901;52.088;5.084;2023-03-04T04:27:22;14.57;;;9.93;;
17566;SDS011;8901;52.088;5.084;2023-03-04T04:29:50;11.83;;;9.43;;
17566;SDS011;8901;52.088;5.084;2023-03-04T04:32:17;11.07;;;9.70;;
17566;SDS011;8901;52.088;5.084;2023-03-04T04:34:44;9.87;;;8.87;;
17566;SDS011;8901;52.088;5.084;2023-03-04T04:37:11;12.60;;;9.37;;
17566;SDS011;8901;52.088;5.084;2023-03-04T04:39:38;10.03;;;9.13;;
17566;SDS011;8901;52.088;5.084;2023-03-04T04:42:07;14.10;;;8.60;;
17566;SDS011;8901;52.088;5.084;2023-03-04T04:44:34;12.23;;;9.17;;
17566;SDS011;8901;52.088;5.084;2023-03-04T04:47:02;12.00;;;9.00;;
17566;SDS011;8901;52.088;5.084;2023-03-04T04:49:31;11.83;;;9.53;;
17566;SDS011;8901;52.088;5.084;2023-03-04T04:51:58;11.47;;;10.17;;
17566;SDS011;8901;52.088;5.084;2023-03-04T04:54:25;11.17;;;9.93;;
17566;SDS011;8901;52.088;5.084;2023-03-04T04:56:52;15.13;;;9.37;;
17566;SDS011;8901;52.088;5.084;2023-03-04T04:59:21;14.60;;;8.93;;
17566;SDS011;8901;52.088;5.084;2023-03-04T05:01:48;13.33;;;9.27;;
17566;SDS011;8901;52.088;5.084;2023-03-04T05:04:15;10.60;;;9.70;;
17566;SDS011;8901;52.088;5.084;2023-03-04T05:06:43;13.30;;;9.57;;
17566;SDS011;8901;52.088;5.084;2023-03-04T05:09:10;14.03;;;10.47;;
17566;SDS011;8901;52.088;5.084;2023-03-04T05:11:38;15.37;;;10.10;;
17566;SDS011;8901;52.088;5.084;2023-03-04T05:14:05;10.77;;;9.77;;
17566;SDS011;8901;52.088;5.084;2023-03-04T05:16:33;11.07;;;9.97;;
17566;SDS011;8901;52.088;5.084;2023-03-04T05:19:01;15.60;;;9.20;;
17566;SDS011;8901;52.088;5.084;2023-03-04T05:21:28;11.90;;;10.30;;
17566;SDS011;8901;52.088;5.084;2023-03-04T05:23:55;11.63;;;10.40;;
17566;SDS011;8901;52.088;5.084;2023-03-04T05:26:22;12.40;;;10.20;;
17566;SDS011;8901;52.088;5.084;2023-03-04T05:28:49;13.50;;;10.90;;
17566;SDS011;8901;52.088;5.084;2023-03-04T05:31:16;11.37;;;10.17;;
17566;SDS011;8901;52.088;5.084;2023-03-04T05:33:45;12.73;;;10.13;;
17566;SDS011;8901;52.088;5.084;2023-03-04T05:36:12;12.07;;;10.13;;
17566;SDS011;8901;52.088;5.084;2023-03-04T05:38:40;11.83;;;10.53;;
17566;SDS011;8901;52.088;5.084;2023-03-04T05:41:08;12.60;;;10.90;;
17566;SDS011;8901;52.088;5.084;2023-03-04T05:43:35;12.13;;;9.83;;
17566;SDS011;8901;52.088;5.084;2023-03-04T05:46:07;17.60;;;10.57;;
17566;SDS011;8901;52.088;5.084;2023-03-04T05:48:34;13.87;;;9.03;;
17566;SDS011;8901;52.088;5.084;2023-03-04T05:51:03;10.43;;;8.90;;
17566;SDS011;8901;52.088;5.084;2023-03-04T05:53:30;11.47;;;8.10;;
17566;SDS011;8901;52.088;5.084;2023-03-04T05:55:57;15.17;;;8.77;;
17566;SDS011;8901;52.088;5.084;2023-03-04T05:58:24;13.97;;;9.27;;
17566;SDS011;8901;52.088;5.084;2023-03-04T06:00:52;10.60;;;8.67;;
17566;SDS011;8901;52.088;5.084;2023-03-04T06:03:20;13.60;;;8.33;;
17566;SDS011;8901;52.088;5.084;2023-03-04T06:05:47;9.00;;;7.87;;
17566;SDS011;8901;52.088;5.084;2023-03-04T06:08:16;10.10;;;7.60;;
17566;SDS011;8901;52.088;5.084;2023-03-04T06:10:43;13.57;;;8.67;;
17566;SDS011;8901;52.088;5.084;2023-03-04T06:13:10;11.63;;;8.50;;
17566;SDS011;8901;52.088;5.084;2023-03-04T06:15:38;13.47;;;8.83;;
17566;SDS011;8901;52.088;5.084;2023-03-04T06:18:05;10.87;;;9.63;;
17566;SDS011;8901;52.088;5.084;2023-03-04T06:20:32;13.27;;;9.90;;
17566;SDS011;8901;52.088;5.084;2023-03-04T06:23:00;14.03;;;9.63;;
17566;SDS011;8901;52.088;5.084;2023-03-04T06:25:28;9.73;;;8.60;;
17566;SDS011;8901;52.088;5.084;2023-03-04T06:27:55;13.43;;;9.67;;
17566;SDS011;8901;52.088;5.084;2023-03-04T06:30:23;12.23;;;10.53;;
17566;SDS011;8901;52.088;5.084;2023-03-04T06:32:50;12.43;;;10.20;;
17566;SDS011;8901;52.088;5.084;2023-03-04T06:38:20;11.93;;;10.70;;
17566;SDS011;8901;52.088;5.084;2023-03-04T06:40:49;12.13;;;10.83;;
17566;SDS011;8901;52.088;5.084;2023-03-04T06:43:17;14.87;;;11.90;;
17566;SDS011;8901;52.088;5.084;2023-03-04T06:45:44;15.00;;;12.40;;
17566;SDS011;8901;52.088;5.084;2023-03-04T06:48:11;13.27;;;12.07;;
17566;SDS011;8901;52.088;5.084;2023-03-04T06:53:42;12.47;;;11.30;;
17566;SDS011;8901;52.088;5.084;2023-03-04T06:56:11;12.93;;;11.57;;
17566;SDS011;8901;52.088;5.084;2023-03-04T06:58:40;12.60;;;9.93;;
17566;SDS011;8901;52.088;5.084;2023-03-04T07:01:22;12.57;;;11.27;;
17566;SDS011;8901;52.088;5.084;2023-03-04T07:03:50;11.83;;;10.67;;
17566;SDS011;8901;52.088;5.084;2023-03-04T07:06:18;11.93;;;10.17;;
17566;SDS011;8901;52.088;5.084;2023-03-04T07:08:45;9.70;;;8.90;;
17566;SDS011;8901;52.088;5.084;2023-03-04T07:11:14;12.63;;;11.10;;
17566;SDS011;8901;52.088;5.084;2023-03-04T07:13:42;13.83;;;10.63;;
17566;SDS011;8901;52.088;5.084;2023-03-04T07:16:11;12.67;;;10.43;;
17566;SDS011;8901;52.088;5.084;2023-03-04T07:18:39;11.60;;;10.57;;
17566;SDS011;8901;52.088;5.084;2023-03-04T07:21:06;9.77;;;9.07;;
17566;SDS011;8901;52.088;5.084;2023-03-04T07:23:34;10.13;;;9.13;;
17566;SDS011;8901;52.088;5.084;2023-03-04T07:26:01;17.17;;;9.33;;
17566;SDS011;8901;52.088;5.084;2023-03-04T07:28:30;12.57;;;8.90;;
17566;SDS011;8901;52.088;5.084;2023-03-04T07:31:06;12.40;;;8.83;;
17566;SDS011;8901;52.088;5.084;2023-03-04T07:33:33;9.77;;;8.87;;
17566;SDS011;8901;52.088;5.084;2023-03-04T07:36:00;10.63;;;7.80;;
17566;SDS011;8901;52.088;5.084;2023-03-04T07:38:28;9.53;;;8.43;;
17566;SDS011;8901;52.088;5.084;2023-03-04T07:40:55;13.80;;;8.57;;
17566;SDS011;8901;52.088;5.084;2023-03-04T07:43:22;11.13;;;10.07;;
17566;SDS011;8901;52.088;5.084;2023-03-04T07:45:51;11.70;;;9.67;;
17566;SDS011;8901;52.088;5.084;2023-03-04T07:48:18;13.57;;;10.13;;
17566;SDS011;8901;52.088;5.084;2023-03-04T07:50:45;12.60;;;11.07;;
17566;SDS011;8901;52.088;5.084;2023-03-04T07:53:12;12.20;;;10.93;;
17566;SDS011;8901;52.088;5.084;2023-03-04T07:55:39;12.23;;;11.17;;
17566;SDS011;8901;52.088;5.084;2023-03-04T07:58:07;11.83;;;10.93;;
17566;SDS011;8901;52.088;5.084;2023-03-04T08:00:34;13.17;;;11.83;;
17566;SDS011;8901;52.088;5.084;2023-03-04T08:03:02;17.00;;;13.37;;
17566;SDS011;8901;52.088;5.084;2023-03-04T08:05:29;14.43;;;12.83;;
17566;SDS011;8901;52.088;5.084;2023-03-04T08:07:57;15.03;;;13.67;;
17566;SDS011;8901;52.088;5.084;2023-03-04T08:10:24;14.37;;;12.90;;
17566;SDS011;8901;52.088;5.084;2023-03-04T08:12:51;14.10;;;12.90;;
17566;SDS011;8901;52.088;5.084;2023-03-04T08:15:18;14.77;;;13.33;;
17566;SDS011;8901;52.088;5.084;2023-03-04T08:17:45;14.20;;;13.10;;
17566;SDS011;8901;52.088;5.084;2023-03-04T08:20:14;15.00;;;13.70;;
17566;SDS011;8901;52.088;5.084;2023-03-04T08:22:41;14.47;;;13.27;;
17566;SDS011;8901;52.088;5.084;2023-03-04T08:25:08;13.60;;;12.60;;
17566;SDS011;8901;52.088;5.084;2023-03-04T08:27:36;14.30;;;13.00;;
17566;SDS011;8901;52.088;5.084;2023-03-04T08:30:03;14.23;;;13.00;;
17566;SDS011;8901;52.088;5.084;2023-03-04T08:32:31;13.77;;;12.83;;
17566;SDS011;8901;52.088;5.084;2023-03-04T08:34:58;16.73;;;13.47;;
17566;SDS011;8901;52.088;5.084;2023-03-04T08:37:27;13.33;;;12.43;;
17566;SDS011;8901;52.088;5.084;2023-03-04T08:39:55;14.03;;;12.90;;
17566;SDS011;8901;52.088;5.084;2023-03-04T08:42:22;13.77;;;12.87;;
17566;SDS011;8901;52.088;5.084;2023-03-04T08:44:49;14.40;;;13.30;;
17566;SDS011;8901;52.088;5.084;2023-03-04T08:47:31;13.20;;;12.33;;
17566;SDS011;8901;52.088;5.084;2023-03-04T08:49:59;13.47;;;12.57;;
17566;SDS011;8901;52.088;5.084;2023-03-04T08:52:28;14.60;;;13.50;;
17566;SDS011;8901;52.088;5.084;2023-03-04T08:54:56;13.40;;;12.60;;
17566;SDS011;8901;52.088;5.084;2023-03-04T08:57:23;13.20;;;12.27;;
17566;SDS011;8901;52.088;5.084;2023-03-04T08:59:50;14.07;;;13.23;;
17566;SDS011;8901;52.088;5.084;2023-03-04T09:02:17;14.27;;;13.30;;
17566;SDS011;8901;52.088;5.084;2023-03-04T09:04:45;14.87;;;13.90;;
17566;SDS011;8901;52.088;5.084;2023-03-04T09:07:12;14.93;;;13.93;;
17566;SDS011;8901;52.088;5.084;2023-03-04T09:09:40;15.20;;;14.10;;
17566;SDS011;8901;52.088;5.084;2023-03-04T09:12:08;15.20;;;14.20;;
17566;SDS011;8901;52.088;5.084;2023-03-04T09:14:35;15.90;;;14.80;;
17566;SDS011;8901;52.088;5.084;2023-03-04T09:17:02;15.80;;;14.80;;
17566;SDS011;8901;52.088;5.084;2023-03-04T09:19:29;15.40;;;14.50;;
17566;SDS011;8901;52.088;5.084;2023-03-04T09:21:57;14.67;;;13.87;;
17566;SDS011;8901;52.088;5.084;2023-03-04T09:24:24;15.93;;;14.83;;
17566;SDS011;8901;52.088;5.084;2023-03-04T09:26:53;15.17;;;14.20;;
17566;SDS011;8901;52.088;5.084;2023-03-04T09:29:21;15.67;;;14.60;;
17566;SDS011;8901;52.088;5.084;2023-03-04T09:31:48;14.53;;;13.63;;
17566;SDS011;8901;52.088;5.084;2023-03-04T09:34:16;14.63;;;13.43;;
17566;SDS011;8901;52.088;5.084;2023-03-04T09:36:43;14.30;;;13.40;;
17566;SDS011;8901;52.088;5.084;2023-03-04T09:39:10;13.73;;;12.60;;
17566;SDS011;8901;52.088;5.084;2023-03-04T09:41:38;13.40;;;12.43;;
17566;SDS011;8901;52.088;5.084;2023-03-04T09:44:11;13.27;;;12.47;;
17566;SDS011;8901;52.088;5.084;2023-03-04T09:46:40;13.00;;;12.10;;
17566;SDS011;8901;52.088;5.084;2023-03-04T09:49:08;12.77;;;11.87;;
17566;SDS011;8901;52.088;5.084;2023-03-04T09:51:40;13.13;;;12.30;;
17566;SDS011;8901;52.088;5.084;2023-03-04T09:54:10;12.30;;;11.40;;
17566;SDS011;8901;52.088;5.084;2023-03-04T09:56:39;11.93;;;10.97;;
17566;SDS011;8901;52.088;5.084;2023-03-04T09:59:16;11.70;;;10.80;;
17566;SDS011;8901;52.088;5.084;2023-03-04T10:01:47;10.67;;;10.07;;
17566;SDS011;8901;52.088;5.084;2023-03-04T10:04:17;10.60;;;9.90;;
17566;SDS011;8901;52.088;5.084;2023-03-04T10:06:46;11.43;;;10.63;;
17566;SDS011;8901;52.088;5.084;2023-03-04T10:09:18;11.60;;;10.80;;
17566;SDS011;8901;52.088;5.084;2023-03-04T10:11:47;11.80;;;10.83;;
17566;SDS011;8901;52.088;5.084;2023-03-04T10:14:23;11.50;;;10.43;;
17566;SDS011;8901;52.088;5.084;2023-03-04T10:16:55;12.20;;;11.20;;
17566;SDS011;8901;52.088;5.084;2023-03-04T10:22:14;12.00;;;11.30;;
17566;SDS011;8901;52.088;5.084;2023-03-04T10:24:43;11.27;;;10.37;;
17566;SDS011;8901;52.088;5.084;2023-03-04T10:27:12;13.00;;;12.10;;
17566;SDS011;8901;52.088;5.084;2023-03-04T10:29:42;12.90;;;11.87;;
17566;SDS011;8901;52.088;5.084;2023-03-04T10:32:10;13.70;;;12.50;;
17566;SDS011;8901;52.088;5.084;2023-03-04T10:34:38;15.90;;;13.40;;
17566;SDS011;8901;52.088;5.084;2023-03-04T10:37:05;14.07;;;13.07;;
17566;SDS011;8901;52.088;5.084;2023-03-04T10:39:34;13.30;;;12.30;;
17566;SDS011;8901;52.088;5.084;2023-03-04T10:42:02;14.57;;;13.70;;
17566;SDS011;8901;52.088;5.084;2023-03-04T10:44:31;14.23;;;13.17;;
17566;SDS011;8901;52.088;5.084;2023-03-04T10:47:00;13.93;;;12.83;;
17566;SDS011;8901;52.088;5.084;2023-03-04T10:49:28;15.27;;;14.03;;
17566;SDS011;8901;52.088;5.084;2023-03-04T10:52:00;14.37;;;13.30;;
17566;SDS011;8901;52.088;5.084;2023-03-04T10:54:28;14.20;;;13.00;;
17566;SDS011;8901;52.088;5.084;2023-03-04T10:57:10;13.00;;;12.10;;
17566;SDS011;8901;52.088;5.084;2023-03-04T10:59:43;12.80;;;11.90;;
17566;SDS011;8901;52.088;5.084;2023-03-04T11:02:25;12.40;;;11.40;;
17566;SDS011;8901;52.088;5.084;2023-03-04T11:04:54;12.90;;;11.70;;
17566;SDS011;8901;52.088;5.084;2023-03-04T11:07:22;11.20;;;10.40;;
17566;SDS011;8901;52.088;5.084;2023-03-04T11:09:49;12.37;;;11.37;;
17566;SDS011;8901;52.088;5.084;2023-03-04T11:12:18;12.37;;;11.47;;
17566;SDS011;8901;52.088;5.084;2023-03-04T11:14:46;11.93;;;10.90;;
17566;SDS011;8901;52.088;5.084;2023-03-04T11:17:18;13.00;;;12.10;;
17566;SDS011;8901;52.088;5.084;2023-03-04T11:19:49;11.77;;;11.00;;
17566;SDS011;8901;52.088;5.084;2023-03-04T11:22:18;12.87;;;12.03;;
17566;SDS011;8901;52.088;5.084;2023-03-04T11:24:47;13.47;;;12.27;;
17566;SDS011;8901;52.088;5.084;2023-03-04T11:27:17;13.53;;;12.63;;
17566;SDS011;8901;52.088;5.084;2023-03-04T11:29:47;12.73;;;11.90;;
17566;SDS011;8901;52.088;5.084;2023-03-04T11:32:17;13.23;;;12.00;;
17566;SDS011;8901;52.088;5.084;2023-03-04T11:34:49;13.00;;;12.17;;
17566;SDS011;8901;52.088;5.084;2023-03-04T11:37:20;13.30;;;12.20;;
17566;SDS011;8901;52.088;5.084;2023-03-04T11:39:49;11.93;;;11.07;;
17566;SDS011;8901;52.088;5.084;2023-03-04T11:42:30;11.40;;;10.50;;
17566;SDS011;8901;52.088;5.084;2023-03-04T11:45:00;10.03;;;9.27;;
17566;SDS011;8901;52.088;5.084;2023-03-04T11:47:31;10.40;;;9.40;;
17566;SDS011;8901;52.088;5.084;2023-03-04T11:55:37;8.40;;;7.77;;
17566;SDS011;8901;52.088;5.084;2023-03-04T11:58:11;10.20;;;9.10;;
17566;SDS011;8901;52.088;5.084;2023-03-04T12:00:40;7.37;;;6.63;;
17566;SDS011;8901;52.088;5.084;2023-03-04T12:05:59;8.63;;;7.93;;
17566;SDS011;8901;52.088;5.084;2023-03-04T12:08:40;10.00;;;9.10;;
17566;SDS011;8901;52.088;5.084;2023-03-04T12:11:12;10.30;;;9.03;;
17566;SDS011;8901;52.088;5.084;2023-03-04T12:13:55;10.50;;;9.40;;
17566;SDS011;8901;52.088;5.084;2023-03-04T12:16:31;9.37;;;8.60;;
17566;SDS011;8901;52.088;5.084;2023-03-04T12:19:04;8.43;;;7.73;;
17566;SDS011;8901;52.088;5.084;2023-03-04T12:21:38;9.20;;;8.30;;
17566;SDS011;8901;52.088;5.084;2023-03-04T12:26:58;8.60;;;7.73;;
17566;SDS011;8901;52.088;5.084;2023-03-04T12:29:31;8.03;;;5.40;;
17566;SDS011;8901;52.088;5.084;2023-03-04T12:32:06;6.47;;;5.50;;
17566;SDS011;8901;52.088;5.084;2023-03-04T12:34:38;8.97;;;6.10;;
17566;SDS011;8901;52.088;5.084;2023-03-04T12:37:20;10.47;;;6.63;;
17566;SDS011;8901;52.088;5.084;2023-03-04T12:39:56;11.53;;;7.13;;
17566;SDS011;8901;52.088;5.084;2023-03-04T12:42:27;9.57;;;7.10;;
17566;SDS011;8901;52.088;5.084;2023-03-04T12:45:01;9.80;;;7.60;;
17566;SDS011;8901;52.088;5.084;2023-03-04T12:47:32;12.57;;;8.23;;
17566;SDS011;8901;52.088;5.084;2023-03-04T12:50:18;9.73;;;8.10;;
17566;SDS011;8901;52.088;5.084;2023-03-04T12:52:51;12.43;;;9.83;;
17566;SDS011;8901;52.088;5.084;2023-03-04T12:55:23;10.37;;;9.23;;
17566;SDS011;8901;52.088;5.084;2023-03-04T12:57:54;11.03;;;10.00;;
17566;SDS011;8901;52.088;5.084;2023-03-04T13:00:25;14.73;;;10.90;;
17566;SDS011;8901;52.088;5.084;2023-03-04T13:03:01;11.97;;;10.87;;
17566;SDS011;8901;52.088;5.084;2023-03-04T13:08:15;14.63;;;13.17;;
17566;SDS011;8901;52.088;5.084;2023-03-04T13:10:45;16.87;;;13.27;;
17566;SDS011;8901;52.088;5.084;2023-03-04T13:16:02;16.17;;;13.70;;
17566;SDS011;8901;52.088;5.084;2023-03-04T13:18:30;19.73;;;14.20;;
17566;SDS011;8901;52.088;5.084;2023-03-04T13:24:01;20.40;;;15.10;;
17566;SDS011;8901;52.088;5.084;2023-03-04T13:29:46;20.83;;;15.17;;
17566;SDS011;8901;52.088;5.084;2023-03-04T13:46:41;17.63;;;16.03;;
17566;SDS011;8901;52.088;5.084;2023-03-04T13:49:16;18.17;;;16.33;;
17566;SDS011;8901;52.088;5.084;2023-03-04T13:51:49;18.93;;;17.03;;
17566;SDS011;8901;52.088;5.084;2023-03-04T13:54:21;18.57;;;16.60;;
17566;SDS011;8901;52.088;5.084;2023-03-04T13:57:09;17.53;;;15.80;;
17566;SDS011;8901;52.088;5.084;2023-03-04T13:59:38;20.33;;;18.20;;
17566;SDS011;8901;52.088;5.084;2023-03-04T14:02:11;20.57;;;17.73;;
17566;SDS011;8901;52.088;5.084;2023-03-04T14:13:43;19.83;;;17.80;;
17566;SDS011;8901;52.088;5.084;2023-03-04T14:16:12;22.17;;;18.53;;
17566;SDS011;8901;52.088;5.084;2023-03-04T14:18:46;20.67;;;18.87;;
17566;SDS011;8901;52.088;5.084;2023-03-04T14:21:27;19.43;;;17.73;;
17566;SDS011;8901;52.088;5.084;2023-03-04T14:24:01;20.63;;;18.83;;
17566;SDS011;8901;52.088;5.084;2023-03-04T14:31:57;20.83;;;19.03;;
17566;SDS011;8901;52.088;5.084;2023-03-04T14:34:31;20.67;;;18.77;;
17566;SDS011;8901;52.088;5.084;2023-03-04T14:39:52;20.53;;;18.30;;
17566;SDS011;8901;52.088;5.084;2023-03-04T14:42:36;19.83;;;18.00;;
17566;SDS011;8901;52.088;5.084;2023-03-04T14:45:15;20.70;;;18.70;;
17566;SDS011;8901;52.088;5.084;2023-03-04T14:47:44;19.83;;;18.13;;
17566;SDS011;8901;52.088;5.084;2023-03-04T14:56:13;19.57;;;17.53;;
17566;SDS011;8901;52.088;5.084;2023-03-04T15:02:06;19.00;;;17.70;;
17566;SDS011;8901;52.088;5.084;2023-03-04T15:04:52;19.33;;;17.83;;
17566;SDS011;8901;52.088;5.084;2023-03-04T15:07:25;19.37;;;17.70;;
17566;SDS011;8901;52.088;5.084;2023-03-04T15:12:49;17.93;;;16.53;;
17566;SDS011;8901;52.088;5.084;2023-03-04T15:18:23;18.27;;;16.67;;
17566;SDS011;8901;52.088;5.084;2023-03-04T15:20:59;17.37;;;16.17;;
17566;SDS011;8901;52.088;5.084;2023-03-04T15:23:30;18.30;;;16.70;;
17566;SDS011;8901;52.088;5.084;2023-03-04T15:29:05;16.63;;;15.53;;
17566;SDS011;8901;52.088;5.084;2023-03-04T15:31:41;16.03;;;14.73;;
17566;SDS011;8901;52.088;5.084;2023-03-04T15:37:08;16.80;;;15.60;;
17566;SDS011;8901;52.088;5.084;2023-03-04T15:39:44;17.17;;;15.70;;
17566;SDS011;8901;52.088;5.084;2023-03-04T15:42:11;17.50;;;16.20;;
17566;SDS011;8901;52.088;5.084;2023-03-04T15:44:43;16.80;;;15.30;;
17566;SDS011;8901;52.088;5.084;2023-03-04T15:47:12;18.50;;;16.90;;
17566;SDS011;8901;52.088;5.084;2023-03-04T15:49:42;16.80;;;15.50;;
17566;SDS011;8901;52.088;5.084;2023-03-04T15:52:14;17.40;;;15.90;;
17566;SDS011;8901;52.088;5.084;2023-03-04T15:54:42;17.27;;;15.93;;
17566;SDS011;8901;52.088;5.084;2023-03-04T15:57:15;16.90;;;15.70;;
17566;SDS011;8901;52.088;5.084;2023-03-04T15:59:52;18.73;;;17.03;;
17566;SDS011;8901;52.088;5.084;2023-03-04T16:02:20;19.27;;;17.77;;
17566;SDS011;8901;52.088;5.084;2023-03-04T16:04:55;19.20;;;17.60;;
17566;SDS011;8901;52.088;5.084;2023-03-04T16:07:23;19.03;;;17.47;;
17566;SDS011;8901;52.088;5.084;2023-03-04T16:12:35;18.77;;;17.37;;
17566;SDS011;8901;52.088;5.084;2023-03-04T16:15:12;17.90;;;16.47;;
17566;SDS011;8901;52.088;5.084;2023-03-04T16:20:15;19.57;;;17.97;;
17566;SDS011;8901;52.088;5.084;2023-03-04T16:22:44;18.50;;;17.07;;
17566;SDS011;8901;52.088;5.084;2023-03-04T16:30:36;18.20;;;17.00;;
17566;SDS011;8901;52.088;5.084;2023-03-04T16:33:04;18.23;;;16.83;;
17566;SDS011;8901;52.088;5.084;2023-03-04T16:35:32;17.73;;;16.23;;
17566;SDS011;8901;52.088;5.084;2023-03-04T16:40:30;18.33;;;16.80;;
17566;SDS011;8901;52.088;5.084;2023-03-04T16:42:58;18.20;;;16.63;;
17566;SDS011;8901;52.088;5.084;2023-03-04T16:45:35;18.90;;;17.50;;
17566;SDS011;8901;52.088;5.084;2023-03-04T16:51:10;18.37;;;17.07;;
17566;SDS011;8901;52.088;5.084;2023-03-04T16:53:44;19.63;;;18.00;;
17566;SDS011;8901;52.088;5.084;2023-03-04T16:56:20;21.03;;;19.37;;
17566;SDS011;8901;52.088;5.084;2023-03-04T16:58:49;22.17;;;20.23;;
17566;SDS011;8901;52.088;5.084;2023-03-04T17:01:21;21.00;;;19.13;;
17566;SDS011;8901;52.088;5.084;2023-03-04T17:03:50;22.93;;;20.90;;
17566;SDS011;8901;52.088;5.084;2023-03-04T17:06:20;20.10;;;18.33;;
17566;SDS011;8901;52.088;5.084;2023-03-04T17:08:48;19.97;;;18.17;;
17566;SDS011;8901;52.088;5.084;2023-03-04T17:11:16;20.07;;;18.10;;
17566;SDS011;8901;52.088;5.084;2023-03-04T17:13:44;18.77;;;17.17;;
17566;SDS011;8901;52.088;5.084;2023-03-04T17:16:12;18.37;;;16.97;;
17566;SDS011;8901;52.088;5.084;2023-03-04T17:18:41;20.70;;;18.90;;
17566;SDS011;8901;52.088;5.084;2023-03-04T17:21:10;18.60;;;17.27;;
17566;SDS011;8901;52.088;5.084;2023-03-04T17:23:40;19.37;;;17.30;;
17566;SDS011;8901;52.088;5.084;2023-03-04T17:26:08;19.60;;;18.10;;
17566;SDS011;8901;52.088;5.084;2023-03-04T17:28:37;20.87;;;19.20;;